createdAt,value
2023-02-11T00:00:16.206Z,70.67
2023-02-11T00:02:46.063Z,70.30
2023-02-11T00:05:14.311Z,70.99
2023-02-11T00:07:40.873Z,71.40
2023-02-11T00:10:08.753Z,70.83
2023-02-11T00:12:37.312Z,69.97
2023-02-11T00:15:06.050Z,70.49
2023-02-11T00:17:33.145Z,70.56
2023-02-11T00:19:59.840Z,70.90
2023-02-11T00:22:26.528Z,71.56
2023-02-11T00:24:53.454Z,71.40
2023-02-11T00:27:20.026Z,71.50
2023-02-11T00:29:46.661Z,71.84
2023-02-11T00:32:13.235Z,71.84
2023-02-11T00:34:39.809Z,71.83
2023-02-11T00:37:06.597Z,71.39
2023-02-11T00:39:33.227Z,71.54
2023-02-11T00:41:59.930Z,71.50
2023-02-11T00:44:26.642Z,70.80
2023-02-11T00:46:53.215Z,70.86
2023-02-11T00:49:19.741Z,70.88
2023-02-11T00:51:46.396Z,71.12
2023-02-11T00:54:12.991Z,71.18
2023-02-11T00:56:39.622Z,71.32
2023-02-11T00:59:06.335Z,71.48
2023-02-11T01:01:33.015Z,71.32
2023-02-11T01:03:59.572Z,71.47
2023-02-11T01:06:26.165Z,71.42
2023-02-11T01:08:52.760Z,71.61
2023-02-11T01:11:20.599Z,71.98
2023-02-11T01:13:49.145Z,71.90
2023-02-11T01:16:16.466Z,73.40
2023-02-11T01:18:44.532Z,73.52
2023-02-11T01:21:11.884Z,73.38
2023-02-11T01:23:38.666Z,73.04
2023-02-11T01:26:06.003Z,72.96
2023-02-11T01:28:33.345Z,72.92
2023-02-11T01:31:01.914Z,72.82
2023-02-11T01:33:28.954Z,71.82
2023-02-11T01:35:55.558Z,72.29
2023-02-11T01:38:25.789Z,72.79
2023-02-11T01:41:04.046Z,72.98
2023-02-11T01:43:37.258Z,72.67
2023-02-11T01:46:36.086Z,72.27
2023-02-11T01:49:09.746Z,72.19
2023-02-11T01:51:42.455Z,72.15
2023-02-11T01:54:29.172Z,72.52
2023-02-11T01:57:17.636Z,73.98
2023-02-11T02:00:09.682Z,74.14
2023-02-11T02:03:00.904Z,74.22
2023-02-11T02:05:39.543Z,73.44
2023-02-11T02:08:21.741Z,73.88
2023-02-11T02:10:53.990Z,73.90
2023-02-11T02:13:21.282Z,74.18
2023-02-11T02:15:53.822Z,73.62
2023-02-11T02:18:29.662Z,73.14
2023-02-11T02:21:30.566Z,74.65
2023-02-11T02:24:15.911Z,74.26
2023-02-11T02:27:12.963Z,73.76
2023-02-11T02:30:08.926Z,74.54
2023-02-11T02:32:35.476Z,74.89
2023-02-11T02:35:02.504Z,74.77
2023-02-11T02:37:38.455Z,74.62
2023-02-11T02:40:12.398Z,74.11
2023-02-11T02:42:41.168Z,73.72
2023-02-11T02:45:09.292Z,73.73
2023-02-11T02:47:35.866Z,73.97
2023-02-11T02:50:04.772Z,72.95
2023-02-11T02:52:49.357Z,72.86
2023-02-11T02:55:33.995Z,72.94
2023-02-11T02:58:27.205Z,73.75
2023-02-11T03:01:18.148Z,73.86
2023-02-11T03:04:13.328Z,73.85
2023-02-11T03:06:42.838Z,74.12
2023-02-11T03:09:20.069Z,73.78
2023-02-11T03:11:46.612Z,73.92
2023-02-11T03:14:17.308Z,73.66
2023-02-11T03:16:46.015Z,73.55
2023-02-11T03:19:28.270Z,73.74
2023-02-11T03:21:56.834Z,73.95
2023-02-11T03:24:35.674Z,73.98
2023-02-11T03:27:10.786Z,74.27
2023-02-11T03:29:44.482Z,74.56
2023-02-11T03:32:17.510Z,74.62
2023-02-11T03:34:54.968Z,74.12
2023-02-11T03:37:42.515Z,73.69
2023-02-11T03:40:15.158Z,73.70
2023-02-11T03:42:54.199Z,74.14
2023-02-11T03:45:23.723Z,76.02
2023-02-11T03:47:56.100Z,76.16
2023-02-11T03:50:24.103Z,75.98
2023-02-11T03:52:51.736Z,75.58
2023-02-11T03:55:20.578Z,75.00
2023-02-11T03:57:47.910Z,75.08
2023-02-11T04:00:15.348Z,74.84
2023-02-11T04:02:43.071Z,74.31
2023-02-11T04:05:12.659Z,74.57
2023-02-11T04:07:39.242Z,74.32
2023-02-11T04:10:06.592Z,74.36
2023-02-11T04:12:33.160Z,74.59
2023-02-11T04:14:59.723Z,75.19
2023-02-11T04:17:26.232Z,74.82
2023-02-11T04:19:52.765Z,74.96
2023-02-11T04:22:19.450Z,74.92
2023-02-11T04:24:46.080Z,74.73
2023-02-11T04:27:12.762Z,74.54
2023-02-11T04:29:39.447Z,74.86
2023-02-11T04:32:06.114Z,74.63
2023-02-11T04:34:33.440Z,74.07
2023-02-11T04:37:00.144Z,74.39
2023-02-11T04:39:26.798Z,74.35
2023-02-11T04:41:53.356Z,74.05
2023-02-11T04:44:19.971Z,74.26
2023-02-11T04:46:46.578Z,74.51
2023-02-11T04:49:15.434Z,74.93
2023-02-11T04:51:42.424Z,74.64
2023-02-11T04:54:09.082Z,74.59
2023-02-11T04:56:35.692Z,75.18
2023-02-11T04:59:02.467Z,75.01
2023-02-11T05:01:29.105Z,74.63
2023-02-11T05:03:55.880Z,74.56
2023-02-11T05:06:22.854Z,74.57
2023-02-11T05:08:49.466Z,75.23
2023-02-11T05:11:21.056Z,76.06
2023-02-11T05:13:48.294Z,76.12
2023-02-11T05:16:16.228Z,75.90
2023-02-11T05:18:44.030Z,76.03
2023-02-11T05:21:14.541Z,75.26
2023-02-11T05:23:41.591Z,75.06
2023-02-11T05:26:08.703Z,75.10
2023-02-11T05:28:35.667Z,75.19
2023-02-11T05:31:02.800Z,75.39
2023-02-11T05:33:29.460Z,75.42
2023-02-11T05:36:00.466Z,75.19
2023-02-11T05:38:27.732Z,74.40
2023-02-11T05:40:54.689Z,74.21
2023-02-11T05:43:21.621Z,74.54
2023-02-11T05:45:48.504Z,75.31
2023-02-11T05:48:15.903Z,74.33
2023-02-11T05:50:43.178Z,73.86
2023-02-11T05:53:09.990Z,73.68
2023-02-11T05:55:36.963Z,73.90
2023-02-11T05:58:04.126Z,73.71
2023-02-11T06:00:31.178Z,73.47
2023-02-11T06:02:57.953Z,72.91
2023-02-11T06:05:24.636Z,72.90
2023-02-11T06:07:51.386Z,71.96
2023-02-11T06:10:18.018Z,71.53
2023-02-11T06:12:44.964Z,71.71
2023-02-11T06:15:11.588Z,71.04
2023-02-11T06:17:38.181Z,70.61
2023-02-11T06:20:07.140Z,69.88
2023-02-11T06:22:35.027Z,69.56
2023-02-11T06:25:02.431Z,69.92
2023-02-11T06:27:29.698Z,69.89
2023-02-11T06:29:56.420Z,69.81
2023-02-11T06:32:43.464Z,69.26
2023-02-11T06:35:11.883Z,69.28
2023-02-11T06:37:38.818Z,69.13
2023-02-11T06:40:05.864Z,67.56
2023-02-11T06:42:32.476Z,67.86
2023-02-11T06:44:59.094Z,66.65
2023-02-11T06:47:25.717Z,64.79
2023-02-11T06:49:52.313Z,64.99
2023-02-11T06:52:18.958Z,63.64
2023-02-11T06:54:45.551Z,63.23
2023-02-11T06:57:12.130Z,64.63
2023-02-11T06:59:38.761Z,63.38
2023-02-11T07:02:05.355Z,62.98
2023-02-11T07:04:32.022Z,62.18
2023-02-11T07:06:58.686Z,61.97
2023-02-11T07:09:25.299Z,61.52
2023-02-11T07:11:51.979Z,60.61
2023-02-11T07:14:18.651Z,61.00
2023-02-11T07:16:45.212Z,59.02
2023-02-11T07:19:11.816Z,57.99
2023-02-11T07:21:38.423Z,57.40
2023-02-11T07:24:11.096Z,57.00
2023-02-11T07:26:37.915Z,57.13
2023-02-11T07:29:04.772Z,56.97
2023-02-11T07:31:32.105Z,56.34
2023-02-11T07:34:00.979Z,55.64
2023-02-11T07:36:29.720Z,55.62
2023-02-11T07:38:56.557Z,55.26
2023-02-11T07:41:24.465Z,54.88
2023-02-11T07:43:51.814Z,57.64
2023-02-11T07:46:22.297Z,58.49
2023-02-11T07:48:49.101Z,61.14
2023-02-11T07:51:24.994Z,61.29
2023-02-11T07:53:52.509Z,59.67
2023-02-11T07:56:21.034Z,57.24
2023-02-11T07:58:48.174Z,57.04
2023-02-11T08:01:20.402Z,55.69
2023-02-11T08:03:47.041Z,55.03
2023-02-11T08:06:16.392Z,54.58
2023-02-11T08:08:43.586Z,54.00
2023-02-11T08:11:13.987Z,53.79
2023-02-11T08:13:41.490Z,52.97
2023-02-11T08:16:08.680Z,51.97
2023-02-11T08:18:36.357Z,53.30
2023-02-11T08:21:07.836Z,54.78
2023-02-11T08:23:38.607Z,55.65
2023-02-11T08:26:07.430Z,56.56
2023-02-11T08:28:38.416Z,55.95
2023-02-11T08:31:16.297Z,55.81
2023-02-11T08:33:43.453Z,53.99
2023-02-11T08:36:11.575Z,52.84
2023-02-11T08:38:38.451Z,50.94
2023-02-11T08:41:05.063Z,47.72
2023-02-11T08:43:33.384Z,45.89
2023-02-11T08:46:02.208Z,45.76
2023-02-11T08:48:29.466Z,46.29
2023-02-11T08:50:56.708Z,46.27
2023-02-11T08:53:24.044Z,45.39
2023-02-11T08:55:52.624Z,44.61
2023-02-11T08:58:20.187Z,42.15
2023-02-11T09:00:47.567Z,41.26
2023-02-11T09:03:17.082Z,38.31
2023-02-11T09:05:50.028Z,38.14
2023-02-11T09:08:17.234Z,37.26
2023-02-11T09:10:44.004Z,37.76
2023-02-11T09:13:10.931Z,37.29
2023-02-11T09:15:37.588Z,37.05
2023-02-11T09:18:05.492Z,35.95
2023-02-11T09:20:32.530Z,34.99
2023-02-11T09:22:59.474Z,33.39
2023-02-11T09:25:26.715Z,33.11
2023-02-11T09:27:53.873Z,34.37
2023-02-11T09:30:21.082Z,33.38
2023-02-11T09:32:47.918Z,32.93
2023-02-11T09:35:14.523Z,31.48
2023-02-11T09:37:41.271Z,31.63
2023-02-11T09:40:08.343Z,31.79
2023-02-11T09:42:51.141Z,31.83
2023-02-11T09:45:22.126Z,30.20
2023-02-11T09:47:54.783Z,30.99
2023-02-11T09:50:30.687Z,30.45
2023-02-11T09:53:15.229Z,31.15
2023-02-11T09:55:46.781Z,31.73
2023-02-11T09:58:16.516Z,30.71
2023-02-11T10:00:57.257Z,29.57
2023-02-11T10:03:58.037Z,29.49
2023-02-11T10:06:39.408Z,30.25
2023-02-11T10:09:25.753Z,30.64
2023-02-11T10:12:01.285Z,29.69
2023-02-11T10:14:54.037Z,30.23
2023-02-11T10:17:20.665Z,30.92
2023-02-11T10:19:56.173Z,30.13
2023-02-11T10:22:35.112Z,30.13
2023-02-11T10:25:23.987Z,30.06
2023-02-11T10:27:52.202Z,29.97
2023-02-11T10:30:21.569Z,30.63
2023-02-11T10:33:04.809Z,30.26
2023-02-11T10:35:32.423Z,30.25
2023-02-11T10:37:59.795Z,29.46
2023-02-11T10:40:28.780Z,29.77
2023-02-11T10:43:01.093Z,29.44
2023-02-11T10:45:36.173Z,29.48
2023-02-11T10:48:27.346Z,28.02
2023-02-11T10:51:27.549Z,28.55
2023-02-11T10:54:08.200Z,28.17
2023-02-11T10:56:37.271Z,29.29
2023-02-11T10:59:28.923Z,29.60
2023-02-11T11:02:07.983Z,28.41
2023-02-11T11:04:39.748Z,28.55
2023-02-11T11:07:16.994Z,28.70
2023-02-11T11:10:02.737Z,28.69
2023-02-11T11:12:35.144Z,28.28
2023-02-11T11:15:13.619Z,27.89
2023-02-11T11:17:40.436Z,28.21
2023-02-11T11:20:33.584Z,28.58
2023-02-11T11:23:17.449Z,28.25
2023-02-11T11:25:58.492Z,27.42
2023-02-11T11:28:27.971Z,27.69
2023-02-11T11:30:57.009Z,27.61
2023-02-11T11:33:28.473Z,27.07
2023-02-11T11:36:02.815Z,27.00
2023-02-11T11:38:31.370Z,26.67
2023-02-11T11:41:34.127Z,26.97
2023-02-11T11:44:24.372Z,26.46
2023-02-11T11:47:07.361Z,24.64
2023-02-11T11:49:39.885Z,25.16
2023-02-11T11:52:12.390Z,25.53
2023-02-11T11:54:41.720Z,25.32
2023-02-11T11:57:17.737Z,25.77
2023-02-11T11:59:44.732Z,25.85
2023-02-11T12:02:50.855Z,26.50
2023-02-11T12:05:35.619Z,26.20
2023-02-11T12:08:13.903Z,25.73
2023-02-11T12:10:50.616Z,25.21
2023-02-11T12:13:23.387Z,25.44
2023-02-11T12:15:57.269Z,25.82
2023-02-11T12:18:47.851Z,26.39
2023-02-11T12:21:33.249Z,25.74
2023-02-11T12:24:30.696Z,25.08
2023-02-11T12:27:09.560Z,25.30
2023-02-11T12:30:01.104Z,25.91
2023-02-11T12:32:39.307Z,25.66
2023-02-11T12:35:34.377Z,25.85
2023-02-11T12:38:11.940Z,26.17
2023-02-11T12:41:40.039Z,25.80
2023-02-11T12:44:15.924Z,25.43
2023-02-11T12:47:05.690Z,25.55
2023-02-11T12:50:09.257Z,24.94
2023-02-11T12:52:45.660Z,25.27
2023-02-11T12:55:37.219Z,24.84
2023-02-11T12:58:04.538Z,24.96
2023-02-11T13:00:36.895Z,25.33
2023-02-11T13:03:11.202Z,25.55
2023-02-11T13:05:46.594Z,25.61
2023-02-11T13:08:36.768Z,25.24
2023-02-11T13:11:16.170Z,25.60
2023-02-11T13:13:45.811Z,25.36
2023-02-11T13:16:27.639Z,24.95
2023-02-11T13:19:30.234Z,25.60
2023-02-11T13:22:05.935Z,25.49
2023-02-11T13:24:57.873Z,25.84
2023-02-11T13:27:41.156Z,25.63
2023-02-11T13:30:40.964Z,26.18
2023-02-11T13:33:17.926Z,27.10
2023-02-11T13:36:12.408Z,26.66
2023-02-11T13:38:39.344Z,26.21
2023-02-11T13:41:30.541Z,26.56
2023-02-11T13:44:22.357Z,26.95
2023-02-11T13:47:01.979Z,27.89
2023-02-11T13:49:42.094Z,27.23
2023-02-11T13:52:20.740Z,26.82
2023-02-11T13:54:51.309Z,26.98
2023-02-11T13:57:20.622Z,26.60
2023-02-11T13:59:50.353Z,27.44
2023-02-11T14:02:35.377Z,27.10
2023-02-11T14:05:23.675Z,26.47
2023-02-11T14:08:30.883Z,26.78
2023-02-11T14:11:35.226Z,27.08
2023-02-11T14:14:24.286Z,27.81
2023-02-11T14:17:00.350Z,27.15
2023-02-11T14:19:34.904Z,27.26
2023-02-11T14:22:06.580Z,26.77
2023-02-11T14:24:33.153Z,27.33
2023-02-11T14:27:07.732Z,26.42
2023-02-11T14:29:42.559Z,27.23
2023-02-11T14:32:49.090Z,26.57
2023-02-11T14:35:34.988Z,27.12
2023-02-11T14:38:01.744Z,27.49
2023-02-11T14:40:34.998Z,27.84
2023-02-11T14:43:13.156Z,27.64
2023-02-11T14:45:40.987Z,28.74
2023-02-11T14:48:18.835Z,28.39
2023-02-11T14:50:58.806Z,28.04
2023-02-11T14:53:27.378Z,28.57
2023-02-11T14:55:55.400Z,28.87
2023-02-11T14:58:23.282Z,28.59
2023-02-11T15:00:53.186Z,29.10
2023-02-11T15:03:42.658Z,29.09
2023-02-11T15:06:22.281Z,28.49
2023-02-11T15:08:55.184Z,29.50
2023-02-11T15:11:25.172Z,29.50
2023-02-11T15:13:55.076Z,29.32
2023-02-11T15:16:27.303Z,29.37
2023-02-11T15:19:03.304Z,30.14
2023-02-11T15:21:32.481Z,29.85
2023-02-11T15:24:26.451Z,29.72
2023-02-11T15:27:21.095Z,31.00
2023-02-11T15:29:50.627Z,30.97
2023-02-11T15:32:19.967Z,31.24
2023-02-11T15:34:48.463Z,31.69
2023-02-11T15:37:35.785Z,31.41
2023-02-11T15:40:20.326Z,32.18
2023-02-11T15:42:58.743Z,32.76
2023-02-11T15:45:29.006Z,32.82
2023-02-11T15:48:08.012Z,32.15
2023-02-11T15:50:37.209Z,32.13
2023-02-11T15:53:33.434Z,32.62
2023-02-11T15:56:11.962Z,33.61
2023-02-11T15:58:41.038Z,34.47
2023-02-11T16:01:09.952Z,34.99
2023-02-11T16:03:36.613Z,35.99
2023-02-11T16:06:20.138Z,35.44
2023-02-11T16:08:56.944Z,34.66
2023-02-11T16:11:27.774Z,34.49
2023-02-11T16:13:54.432Z,36.20
2023-02-11T16:16:31.391Z,37.78
2023-02-11T16:19:05.967Z,38.54
2023-02-11T16:21:42.753Z,39.57
2023-02-11T16:24:20.051Z,39.32
2023-02-11T16:26:50.307Z,39.54
2023-02-11T16:29:22.700Z,40.20
2023-02-11T16:31:50.482Z,40.66
2023-02-11T16:34:22.516Z,40.74
2023-02-11T16:36:50.784Z,41.18
2023-02-11T16:39:19.253Z,41.64
2023-02-11T16:41:45.848Z,42.32
2023-02-11T16:44:12.424Z,42.90
2023-02-11T16:46:39.185Z,43.00
2023-02-11T16:49:20.645Z,42.74
2023-02-11T16:51:50.238Z,43.40
2023-02-11T16:54:18.779Z,43.17
2023-02-11T16:56:45.413Z,43.78
2023-02-11T16:59:12.254Z,43.73
2023-02-11T17:01:40.552Z,43.51
2023-02-11T17:04:07.513Z,44.01
2023-02-11T17:06:35.078Z,44.14
2023-02-11T17:09:01.940Z,43.79
2023-02-11T17:11:28.565Z,44.01
2023-02-11T17:13:55.192Z,44.79
2023-02-11T17:16:25.046Z,44.52
2023-02-11T17:18:52.694Z,44.37
2023-02-11T17:21:19.312Z,45.09
2023-02-11T17:23:46.126Z,45.70
2023-02-11T17:26:12.868Z,46.09
2023-02-11T17:28:39.479Z,45.38
2023-02-11T17:31:09.996Z,45.87
2023-02-11T17:33:37.838Z,46.40
2023-02-11T17:36:09.000Z,46.41
2023-02-11T17:38:37.319Z,46.50
2023-02-11T17:41:05.580Z,46.46
2023-02-11T17:43:32.244Z,47.27
2023-02-11T17:45:59.044Z,46.71
2023-02-11T17:48:25.755Z,46.98
2023-02-11T17:50:52.342Z,46.98
2023-02-11T17:53:18.941Z,46.98
2023-02-11T17:55:45.537Z,47.65
2023-02-11T17:58:12.124Z,48.25
2023-02-11T18:00:38.696Z,48.81
2023-02-11T18:03:05.302Z,48.46
2023-02-11T18:05:36.716Z,49.45
2023-02-11T18:08:06.896Z,49.80
2023-02-11T18:10:34.168Z,49.56
2023-02-11T18:13:01.376Z,49.71
2023-02-11T18:15:28.020Z,49.86
2023-02-11T18:17:55.530Z,50.17
2023-02-11T18:20:22.165Z,49.99
2023-02-11T18:22:48.817Z,50.25
2023-02-11T18:25:16.240Z,50.14
2023-02-11T18:27:42.980Z,50.99
2023-02-11T18:30:15.105Z,50.80
2023-02-11T18:32:41.692Z,49.98
2023-02-11T18:35:14.767Z,50.21
2023-02-11T18:37:42.626Z,50.05
2023-02-11T18:40:11.088Z,49.97
2023-02-11T18:42:37.833Z,50.39
2023-02-11T18:45:09.924Z,50.88
2023-02-11T18:47:40.408Z,50.64
2023-02-11T18:50:11.266Z,51.18
2023-02-11T18:52:38.500Z,51.56
2023-02-11T18:55:06.077Z,51.73
2023-02-11T18:57:32.752Z,51.72
2023-02-11T18:59:59.446Z,52.18
2023-02-11T19:02:26.338Z,51.92
2023-02-11T19:04:52.984Z,52.54
2023-02-11T19:07:19.566Z,52.43
2023-02-11T19:09:46.171Z,52.11
2023-02-11T19:12:12.814Z,52.08
2023-02-11T19:14:39.421Z,52.84
2023-02-11T19:17:07.618Z,52.61
2023-02-11T19:19:36.582Z,51.92
2023-02-11T19:22:10.563Z,52.54
2023-02-11T19:24:38.003Z,53.35
2023-02-11T19:27:05.199Z,53.08
2023-02-11T19:29:35.090Z,53.37
2023-02-11T19:32:03.857Z,53.41
2023-02-11T19:34:30.496Z,53.26
2023-02-11T19:36:59.553Z,53.91
2023-02-11T19:39:26.337Z,53.33
2023-02-11T19:41:53.551Z,53.81
2023-02-11T19:44:20.247Z,54.12
2023-02-11T19:46:48.379Z,54.22
2023-02-11T19:49:17.643Z,53.50
2023-02-11T19:51:44.276Z,53.69
2023-02-11T19:54:10.932Z,54.63
2023-02-11T19:56:37.992Z,54.46
2023-02-11T19:59:05.028Z,54.36
2023-02-11T20:01:31.730Z,54.50
2023-02-11T20:03:58.484Z,54.64
2023-02-11T20:06:30.434Z,54.92
2023-02-11T20:08:59.511Z,55.07
2023-02-11T20:11:28.214Z,55.44
2023-02-11T20:13:55.508Z,54.88
2023-02-11T20:16:36.851Z,55.42
2023-02-11T20:19:14.946Z,55.15
2023-02-11T20:21:41.513Z,55.66
2023-02-11T20:24:08.127Z,55.59
2023-02-11T20:26:34.980Z,55.50
2023-02-11T20:29:04.903Z,55.67
2023-02-11T20:31:35.024Z,55.96
2023-02-11T20:34:02.124Z,55.87
2023-02-11T20:36:32.245Z,55.38
2023-02-11T20:39:00.513Z,55.60
2023-02-11T20:41:30.888Z,55.62
2023-02-11T20:43:59.970Z,55.23
2023-02-11T20:46:28.884Z,55.98
2023-02-11T20:48:57.198Z,56.56
2023-02-11T20:51:27.585Z,56.09
2023-02-11T20:53:54.687Z,56.46
2023-02-11T20:56:24.526Z,56.47
2023-02-11T20:58:53.203Z,56.28
2023-02-11T21:01:25.338Z,56.87
2023-02-11T21:03:54.906Z,57.76
2023-02-11T21:06:23.300Z,57.33
2023-02-11T21:08:50.054Z,57.73
2023-02-11T21:11:16.728Z,57.31
2023-02-11T21:13:43.967Z,57.56
2023-02-11T21:16:17.824Z,57.98
2023-02-11T21:18:44.426Z,57.84
2023-02-11T21:21:11.014Z,57.18
2023-02-11T21:23:41.719Z,56.79
2023-02-11T21:26:08.576Z,56.98
2023-02-11T21:28:35.721Z,56.70
2023-02-11T21:31:02.995Z,56.68
2023-02-11T21:33:30.398Z,56.95
2023-02-11T21:36:02.582Z,56.51
2023-02-11T21:38:29.844Z,56.94
2023-02-11T21:41:02.028Z,57.37
2023-02-11T21:43:28.570Z,57.49
2023-02-11T21:45:55.437Z,57.83
2023-02-11T21:48:23.862Z,57.47
2023-02-11T21:50:50.454Z,57.39
2023-02-11T21:53:17.511Z,57.47
2023-02-11T21:55:44.225Z,57.52
2023-02-11T21:58:12.859Z,58.05
2023-02-11T22:00:39.573Z,58.02
2023-02-11T22:03:06.239Z,58.41
2023-02-11T22:05:32.813Z,58.35
2023-02-11T22:07:59.415Z,58.31
2023-02-11T22:10:25.995Z,57.33
2023-02-11T22:12:52.584Z,57.60
2023-02-11T22:15:19.558Z,57.87
2023-02-11T22:17:46.177Z,57.59
2023-02-11T22:20:12.904Z,57.13
2023-02-11T22:22:39.489Z,58.04
2023-02-11T22:25:06.498Z,58.33
2023-02-11T22:27:33.036Z,58.41
2023-02-11T22:29:59.684Z,58.61
2023-02-11T22:32:26.384Z,59.09
2023-02-11T22:34:53.533Z,58.91
2023-02-11T22:37:20.617Z,58.83
2023-02-11T22:39:47.324Z,59.05
2023-02-11T22:42:13.976Z,58.84
2023-02-11T22:44:40.570Z,58.15
2023-02-11T22:47:07.218Z,58.25
2023-02-11T22:49:35.635Z,57.75
2023-02-11T22:52:02.210Z,57.83
2023-02-11T22:54:28.969Z,57.77
2023-02-11T22:56:55.628Z,57.63
2023-02-11T22:59:22.309Z,57.10
2023-02-11T23:01:49.097Z,57.51
2023-02-11T23:04:19.116Z,57.80
2023-02-11T23:06:47.686Z,56.83
2023-02-11T23:09:14.376Z,56.74
2023-02-11T23:11:41.689Z,56.16
2023-02-11T23:14:10.187Z,56.66
2023-02-11T23:16:36.868Z,56.31
2023-02-11T23:19:06.677Z,55.78
2023-02-11T23:21:37.297Z,55.74
2023-02-11T23:24:12.178Z,55.39
2023-02-11T23:26:40.290Z,56.00
2023-02-11T23:29:06.939Z,56.66
2023-02-11T23:31:37.486Z,56.80
2023-02-11T23:34:04.474Z,56.51
2023-02-11T23:36:31.557Z,57.24
2023-02-11T23:38:58.843Z,57.52
2023-02-11T23:41:25.419Z,57.00
2023-02-11T23:43:54.025Z,57.05
2023-02-11T23:46:22.313Z,57.65
2023-02-11T23:48:51.438Z,57.19
2023-02-11T23:51:18.646Z,57.87
2023-02-11T23:53:49.389Z,58.24
2023-02-11T23:56:24.696Z,58.46
2023-02-11T23:58:54.192Z,59.07
